createdAt,value
2023-03-07T00:00:51.103Z,984.36
2023-03-07T00:01:51.134Z,984.32
2023-03-07T00:02:51.102Z,984.28
2023-03-07T00:03:51.233Z,984.30
2023-03-07T00:04:56.284Z,984.24
2023-03-07T00:05:51.054Z,984.27
2023-03-07T00:06:51.097Z,984.26
2023-03-07T00:07:51.053Z,984.21
2023-03-07T00:08:51.007Z,984.18
2023-03-07T00:09:51.008Z,984.19
2023-03-07T00:10:50.980Z,984.20
2023-03-07T00:11:50.986Z,984.27
2023-03-07T00:12:51.010Z,984.25
2023-03-07T00:13:50.953Z,984.27
2023-03-07T00:14:50.960Z,984.22
2023-03-07T00:15:50.996Z,984.22
2023-03-07T00:16:50.941Z,984.25
2023-03-07T00:17:50.910Z,984.25
2023-03-07T00:18:50.927Z,984.28
2023-03-07T00:19:50.898Z,984.25
2023-03-07T00:20:50.873Z,984.29
2023-03-07T00:21:50.867Z,984.25
2023-03-07T00:22:50.856Z,984.22
2023-03-07T00:23:50.842Z,984.21
2023-03-07T00:24:50.881Z,984.15
2023-03-07T00:25:50.822Z,984.15
2023-03-07T00:26:50.802Z,984.13
2023-03-07T00:27:50.861Z,984.11
2023-03-07T00:28:50.790Z,984.18
2023-03-07T00:29:50.781Z,984.11
2023-03-07T00:30:50.792Z,984.08
2023-03-07T00:31:50.866Z,984.10
2023-03-07T00:32:50.753Z,984.05
2023-03-07T00:33:50.735Z,984.01
2023-03-07T00:34:50.723Z,983.98
2023-03-07T00:35:50.797Z,984.01
2023-03-07T00:36:50.701Z,984.02
2023-03-07T00:37:50.703Z,983.93
2023-03-07T00:38:50.687Z,983.92
2023-03-07T00:39:55.882Z,983.92
2023-03-07T00:40:50.668Z,983.89
2023-03-07T00:41:50.713Z,983.92
2023-03-07T00:42:50.632Z,983.86
2023-03-07T00:43:50.613Z,983.83
2023-03-07T00:44:50.621Z,983.81
2023-03-07T00:45:50.635Z,983.88
2023-03-07T00:46:50.596Z,983.82
2023-03-07T00:47:50.615Z,983.83
2023-03-07T00:48:50.586Z,983.84
2023-03-07T00:49:50.840Z,983.78
2023-03-07T00:50:50.547Z,983.79
2023-03-07T00:51:50.534Z,983.83
2023-03-07T00:52:50.532Z,983.80
2023-03-07T00:53:50.541Z,983.80
2023-03-07T00:54:50.502Z,983.78
2023-03-07T00:55:50.490Z,983.76
2023-03-07T00:56:50.475Z,983.74
2023-03-07T00:57:50.488Z,983.74
2023-03-07T00:58:50.497Z,983.71
2023-03-07T00:59:50.474Z,983.70
2023-03-07T01:00:50.494Z,983.68
2023-03-07T01:01:50.438Z,983.62
2023-03-07T01:02:50.417Z,983.63
2023-03-07T01:03:50.454Z,983.67
2023-03-07T01:04:50.415Z,983.68
2023-03-07T01:05:50.391Z,983.66
2023-03-07T01:06:50.383Z,983.63
2023-03-07T01:07:50.361Z,983.73
2023-03-07T01:08:50.348Z,983.66
2023-03-07T01:09:50.345Z,983.60
2023-03-07T01:10:50.409Z,983.66
2023-03-07T01:11:50.317Z,983.56
2023-03-07T01:12:50.309Z,983.62
2023-03-07T01:13:50.287Z,983.54
2023-03-07T01:14:50.294Z,983.60
2023-03-07T01:15:50.289Z,983.60
2023-03-07T01:16:50.471Z,983.52
2023-03-07T01:17:50.257Z,983.53
2023-03-07T01:18:50.241Z,983.54
2023-03-07T01:19:50.228Z,983.53
2023-03-07T01:20:50.209Z,983.47
2023-03-07T01:21:50.217Z,983.43
2023-03-07T01:22:50.244Z,983.50
2023-03-07T01:23:50.202Z,983.45
2023-03-07T01:24:50.181Z,983.47
2023-03-07T01:25:50.168Z,983.45
2023-03-07T01:26:50.151Z,983.47
2023-03-07T01:27:50.184Z,983.43
2023-03-07T01:28:50.135Z,983.43
2023-03-07T01:29:50.131Z,983.46
2023-03-07T01:30:50.110Z,983.32
2023-03-07T01:31:50.170Z,983.43
2023-03-07T01:32:50.137Z,983.31
2023-03-07T01:33:50.111Z,983.30
2023-03-07T01:34:50.094Z,983.21
2023-03-07T01:35:50.107Z,983.29
2023-03-07T01:36:50.095Z,983.24
2023-03-07T01:37:50.059Z,983.26
2023-03-07T01:38:50.051Z,983.25
2023-03-07T01:39:50.018Z,983.20
2023-03-07T01:40:50.025Z,983.23
2023-03-07T01:41:50.002Z,983.25
2023-03-07T01:42:50.073Z,983.19
2023-03-07T01:43:49.985Z,983.25
2023-03-07T01:44:49.970Z,983.21
2023-03-07T01:45:50.043Z,983.18
2023-03-07T01:46:49.941Z,983.15
2023-03-07T01:47:49.934Z,983.14
2023-03-07T01:48:49.940Z,983.19
2023-03-07T01:49:49.983Z,983.05
2023-03-07T01:50:49.934Z,983.08
2023-03-07T01:51:49.892Z,983.17
2023-03-07T01:52:49.860Z,983.06
2023-03-07T01:53:49.872Z,983.05
2023-03-07T01:54:49.849Z,983.06
2023-03-07T01:55:49.958Z,983.12
2023-03-07T01:56:49.836Z,983.03
2023-03-07T01:57:49.830Z,983.10
2023-03-07T01:58:49.804Z,983.03
2023-03-07T01:59:49.798Z,983.05
2023-03-07T02:00:49.799Z,983.01
2023-03-07T02:01:49.808Z,983.04
2023-03-07T02:02:49.762Z,982.98
2023-03-07T02:03:49.768Z,983.02
2023-03-07T02:04:49.747Z,982.96
2023-03-07T02:05:49.787Z,982.96
2023-03-07T02:06:49.717Z,982.94
2023-03-07T02:07:49.753Z,982.88
2023-03-07T02:08:49.699Z,982.90
2023-03-07T02:09:49.690Z,982.85
2023-03-07T02:10:49.750Z,982.82
2023-03-07T02:11:49.662Z,982.88
2023-03-07T02:12:49.660Z,982.84
2023-03-07T02:13:49.688Z,982.76
2023-03-07T02:14:49.635Z,982.73
2023-03-07T02:15:49.647Z,982.82
2023-03-07T02:16:49.620Z,982.73
2023-03-07T02:17:49.589Z,982.76
2023-03-07T02:18:49.581Z,982.79
2023-03-07T02:19:49.590Z,982.68
2023-03-07T02:20:49.603Z,982.62
2023-03-07T02:21:49.548Z,982.73
2023-03-07T02:22:49.542Z,982.74
2023-03-07T02:23:49.539Z,982.71
2023-03-07T02:24:49.556Z,982.69
2023-03-07T02:25:49.533Z,982.64
2023-03-07T02:26:49.502Z,982.62
2023-03-07T02:27:49.493Z,982.63
2023-03-07T02:28:49.484Z,982.62
2023-03-07T02:29:49.485Z,982.58
2023-03-07T02:30:49.515Z,982.59
2023-03-07T02:31:49.461Z,982.58
2023-03-07T02:32:49.441Z,982.56
2023-03-07T02:33:49.419Z,982.50
2023-03-07T02:34:49.419Z,982.61
2023-03-07T02:35:49.441Z,982.57
2023-03-07T02:36:49.401Z,982.56
2023-03-07T02:37:49.377Z,982.48
2023-03-07T02:38:49.380Z,982.56
2023-03-07T02:39:49.391Z,982.53
2023-03-07T02:40:49.353Z,982.53
2023-03-07T02:41:49.368Z,982.48
2023-03-07T02:42:49.324Z,982.48
2023-03-07T02:43:49.303Z,982.50
2023-03-07T02:44:49.305Z,982.44
2023-03-07T02:45:49.304Z,982.51
2023-03-07T02:46:49.285Z,982.45
2023-03-07T02:47:49.283Z,982.39
2023-03-07T02:48:49.260Z,982.38
2023-03-07T02:49:49.245Z,982.33
2023-03-07T02:50:49.258Z,982.41
2023-03-07T02:51:49.251Z,982.28
2023-03-07T02:52:49.252Z,982.33
2023-03-07T02:53:49.202Z,982.34
2023-03-07T02:54:49.205Z,982.28
2023-03-07T02:55:49.172Z,982.25
2023-03-07T02:56:49.172Z,982.27
2023-03-07T02:57:49.153Z,982.25
2023-03-07T02:58:49.197Z,982.21
2023-03-07T02:59:49.146Z,982.18
2023-03-07T03:00:49.155Z,982.23
2023-03-07T03:01:49.182Z,982.21
2023-03-07T03:02:49.106Z,982.25
2023-03-07T03:03:49.157Z,982.24
2023-03-07T03:04:49.117Z,982.21
2023-03-07T03:05:49.102Z,982.16
2023-03-07T03:06:49.058Z,982.18
2023-03-07T03:07:49.083Z,982.23
2023-03-07T03:08:49.042Z,982.12
2023-03-07T03:09:49.079Z,982.18
2023-03-07T03:10:49.030Z,982.16
2023-03-07T03:11:49.049Z,982.14
2023-03-07T03:12:49.030Z,982.15
2023-03-07T03:13:48.990Z,982.16
2023-03-07T03:14:48.990Z,982.22
2023-03-07T03:15:49.098Z,982.18
2023-03-07T03:16:48.960Z,982.14
2023-03-07T03:17:48.965Z,982.18
2023-03-07T03:18:48.940Z,982.16
2023-03-07T03:19:48.952Z,982.18
2023-03-07T03:20:48.911Z,982.13
2023-03-07T03:21:48.964Z,982.08
2023-03-07T03:22:48.892Z,982.05
2023-03-07T03:23:48.894Z,982.11
2023-03-07T03:24:48.877Z,982.09
2023-03-07T03:25:48.862Z,982.20
2023-03-07T03:26:48.933Z,982.11
2023-03-07T03:27:48.858Z,982.20
2023-03-07T03:28:48.835Z,982.12
2023-03-07T03:29:48.824Z,982.12
2023-03-07T03:30:48.834Z,982.11
2023-03-07T03:31:48.794Z,982.14
2023-03-07T03:32:48.803Z,982.11
2023-03-07T03:33:48.779Z,982.11
2023-03-07T03:34:48.760Z,982.10
2023-03-07T03:35:48.773Z,982.13
2023-03-07T03:36:48.730Z,982.16
2023-03-07T03:37:48.777Z,982.13
2023-03-07T03:38:48.730Z,982.06
2023-03-07T03:39:48.717Z,982.10
2023-03-07T03:40:48.702Z,982.13
2023-03-07T03:41:48.720Z,982.07
2023-03-07T03:42:48.699Z,982.10
2023-03-07T03:43:48.687Z,982.11
2023-03-07T03:44:48.650Z,982.08
2023-03-07T03:45:48.632Z,982.16
2023-03-07T03:46:48.723Z,982.00
2023-03-07T03:47:48.658Z,982.07
2023-03-07T03:48:48.616Z,982.07
2023-03-07T03:49:48.635Z,982.03
2023-03-07T03:50:48.585Z,982.02
2023-03-07T03:51:48.592Z,982.02
2023-03-07T03:52:48.571Z,981.99
2023-03-07T03:53:48.552Z,981.99
2023-03-07T03:54:48.533Z,981.99
2023-03-07T03:55:48.623Z,982.02
2023-03-07T03:56:48.523Z,981.98
2023-03-07T03:57:48.514Z,981.92
2023-03-07T03:58:48.516Z,981.96
2023-03-07T03:59:48.525Z,981.99
2023-03-07T04:00:48.485Z,981.95
2023-03-07T04:01:48.563Z,981.93
2023-03-07T04:02:48.535Z,981.96
2023-03-07T04:03:48.453Z,981.86
2023-03-07T04:04:48.423Z,981.96
2023-03-07T04:05:48.417Z,981.98
2023-03-07T04:06:48.402Z,981.94
2023-03-07T04:07:48.440Z,981.90
2023-03-07T04:08:48.406Z,981.96
2023-03-07T04:09:48.385Z,981.94
2023-03-07T04:10:48.383Z,981.95
2023-03-07T04:11:48.360Z,981.91
2023-03-07T04:12:48.341Z,981.94
2023-03-07T04:13:48.361Z,981.87
2023-03-07T04:14:48.326Z,981.87
2023-03-07T04:15:48.304Z,981.89
2023-03-07T04:16:48.360Z,981.92
2023-03-07T04:17:48.293Z,981.91
2023-03-07T04:18:48.342Z,981.84
2023-03-07T04:19:48.284Z,981.84
2023-03-07T04:20:48.247Z,981.88
2023-03-07T04:21:48.255Z,981.83
2023-03-07T04:22:48.273Z,981.81
2023-03-07T04:23:48.221Z,981.82
2023-03-07T04:24:48.230Z,981.82
2023-03-07T04:25:48.262Z,981.82
2023-03-07T04:26:48.197Z,981.79
2023-03-07T04:27:48.191Z,981.76
2023-03-07T04:28:48.164Z,981.73
2023-03-07T04:29:48.206Z,981.79
2023-03-07T04:30:48.140Z,981.76
2023-03-07T04:31:48.190Z,981.75
2023-03-07T04:32:48.111Z,981.69
2023-03-07T04:33:48.145Z,981.74
2023-03-07T04:34:48.119Z,981.75
2023-03-07T04:35:48.202Z,981.72
2023-03-07T04:36:48.072Z,981.67
2023-03-07T04:37:48.064Z,981.66
2023-03-07T04:38:48.090Z,981.67
2023-03-07T04:39:48.051Z,981.70
2023-03-07T04:40:51.557Z,981.68
2023-03-07T04:41:48.025Z,981.70
2023-03-07T04:42:48.014Z,981.70
2023-03-07T04:43:48.013Z,981.69
2023-03-07T04:44:47.992Z,981.65
2023-03-07T04:45:48.043Z,981.64
2023-03-07T04:46:48.227Z,981.65
2023-03-07T04:47:47.955Z,981.60
2023-03-07T04:48:47.942Z,981.56
2023-03-07T04:49:47.954Z,981.60
2023-03-07T04:50:47.925Z,981.54
2023-03-07T04:51:47.956Z,981.62
2023-03-07T04:52:47.985Z,981.51
2023-03-07T04:53:47.901Z,981.56
2023-03-07T04:54:47.883Z,981.54
2023-03-07T04:55:47.866Z,981.60
2023-03-07T04:56:47.876Z,981.52
2023-03-07T04:57:47.850Z,981.56
2023-03-07T04:58:47.926Z,981.56
2023-03-07T04:59:47.828Z,981.52
2023-03-07T05:00:47.819Z,981.44
2023-03-07T05:01:47.808Z,981.47
2023-03-07T05:02:47.808Z,981.47
2023-03-07T05:03:47.797Z,981.47
2023-03-07T05:04:47.804Z,981.44
2023-03-07T05:05:47.765Z,981.40
2023-03-07T05:06:47.779Z,981.44
2023-03-07T05:07:47.734Z,981.50
2023-03-07T05:08:47.730Z,981.46
2023-03-07T05:09:47.735Z,981.46
2023-03-07T05:10:47.746Z,981.35
2023-03-07T05:11:47.704Z,981.38
2023-03-07T05:12:47.706Z,981.40
2023-03-07T05:13:47.708Z,981.30
2023-03-07T05:14:47.666Z,981.34
2023-03-07T05:15:47.685Z,981.34
2023-03-07T05:16:47.746Z,981.34
2023-03-07T05:17:47.638Z,981.27
2023-03-07T05:18:47.650Z,981.25
2023-03-07T05:19:47.619Z,981.24
2023-03-07T05:20:47.606Z,981.23
2023-03-07T05:21:47.786Z,981.22
2023-03-07T05:22:47.617Z,981.27
2023-03-07T05:23:47.591Z,981.23
2023-03-07T05:24:47.582Z,981.28
2023-03-07T05:25:47.577Z,981.23
2023-03-07T05:26:47.569Z,981.26
2023-03-07T05:27:47.574Z,981.25
2023-03-07T05:28:47.504Z,981.20
2023-03-07T05:29:47.499Z,981.21
2023-03-07T05:30:47.529Z,981.24
2023-03-07T05:31:47.479Z,981.25
2023-03-07T05:32:47.480Z,981.25
2023-03-07T05:33:47.490Z,981.31
2023-03-07T05:34:47.469Z,981.27
2023-03-07T05:35:47.476Z,981.27
2023-03-07T05:36:47.433Z,981.28
2023-03-07T05:37:47.427Z,981.31
2023-03-07T05:38:47.398Z,981.28
2023-03-07T05:39:47.441Z,981.28
2023-03-07T05:40:47.377Z,981.23
2023-03-07T05:41:47.396Z,981.25
2023-03-07T05:42:47.381Z,981.24
2023-03-07T05:43:47.337Z,981.18
2023-03-07T05:44:47.345Z,981.18
2023-03-07T05:45:47.339Z,981.25
2023-03-07T05:46:47.309Z,981.23
2023-03-07T05:47:47.331Z,981.22
2023-03-07T05:48:47.299Z,981.21
2023-03-07T05:49:47.280Z,981.25
2023-03-07T05:50:47.300Z,981.25
2023-03-07T05:51:47.273Z,981.22
2023-03-07T05:52:47.244Z,981.13
2023-03-07T05:53:47.255Z,981.22
2023-03-07T05:54:47.234Z,981.17
2023-03-07T05:55:47.215Z,981.18
2023-03-07T05:56:47.250Z,981.19
2023-03-07T05:57:47.202Z,981.22
2023-03-07T05:58:47.196Z,981.24
2023-03-07T05:59:47.162Z,981.21
2023-03-07T06:00:47.177Z,981.25
2023-03-07T06:01:47.143Z,981.25
2023-03-07T06:02:47.260Z,981.23
2023-03-07T06:03:47.158Z,981.24
2023-03-07T06:04:47.128Z,981.19
2023-03-07T06:05:47.156Z,981.19
2023-03-07T06:06:47.099Z,981.18
2023-03-07T06:07:47.121Z,981.05
2023-03-07T06:08:47.090Z,981.12
2023-03-07T06:09:47.073Z,981.09
2023-03-07T06:10:47.054Z,981.18
2023-03-07T06:11:47.053Z,981.08
2023-03-07T06:12:47.023Z,981.12
2023-03-07T06:13:47.022Z,981.09
2023-03-07T06:14:47.097Z,981.07
2023-03-07T06:15:47.049Z,981.14
2023-03-07T06:16:46.997Z,981.11
2023-03-07T06:17:46.983Z,981.09
2023-03-07T06:18:46.951Z,981.06
2023-03-07T06:19:46.954Z,981.15
2023-03-07T06:20:47.020Z,981.13
2023-03-07T06:21:46.942Z,981.14
2023-03-07T06:22:46.933Z,981.13
2023-03-07T06:23:46.907Z,981.00
2023-03-07T06:24:46.933Z,981.08
2023-03-07T06:25:46.882Z,981.05
2023-03-07T06:26:46.894Z,981.13
2023-03-07T06:27:46.852Z,981.05
2023-03-07T06:28:46.857Z,981.09
2023-03-07T06:29:46.851Z,981.17
2023-03-07T06:30:46.854Z,981.09
2023-03-07T06:31:46.903Z,981.12
2023-03-07T06:32:46.821Z,981.08
2023-03-07T06:33:46.794Z,981.06
2023-03-07T06:34:46.777Z,981.14
2023-03-07T06:35:46.810Z,981.10
2023-03-07T06:36:46.763Z,981.14
2023-03-07T06:37:46.793Z,981.16
2023-03-07T06:38:46.734Z,981.07
2023-03-07T06:39:46.928Z,981.12
2023-03-07T06:40:46.715Z,981.17
2023-03-07T06:41:46.740Z,981.15
2023-03-07T06:42:46.707Z,981.13
2023-03-07T06:43:46.735Z,981.17
2023-03-07T06:44:46.722Z,981.14
2023-03-07T06:45:46.690Z,981.13
2023-03-07T06:46:46.653Z,981.12
2023-03-07T06:47:46.637Z,981.09
2023-03-07T06:48:46.629Z,981.09
2023-03-07T06:49:46.638Z,981.09
2023-03-07T06:50:46.595Z,981.16
2023-03-07T06:51:46.614Z,981.15
2023-03-07T06:52:46.606Z,981.06
2023-03-07T06:53:46.580Z,981.10
2023-03-07T06:54:46.604Z,981.02
2023-03-07T06:55:46.571Z,981.09
2023-03-07T06:56:46.552Z,981.08
2023-03-07T06:57:46.531Z,981.07
2023-03-07T06:58:46.594Z,981.12
2023-03-07T06:59:46.529Z,981.03
2023-03-07T07:00:46.548Z,981.06
2023-03-07T07:01:46.564Z,981.02
2023-03-07T07:02:46.530Z,981.01
2023-03-07T07:03:46.479Z,981.05
2023-03-07T07:04:46.470Z,981.04
2023-03-07T07:05:46.472Z,981.02
2023-03-07T07:06:46.424Z,980.99
2023-03-07T07:07:46.398Z,981.03
2023-03-07T07:08:46.396Z,981.00
2023-03-07T07:09:46.402Z,981.01
2023-03-07T07:10:46.381Z,981.03
2023-03-07T07:11:46.406Z,980.87
2023-03-07T07:12:46.348Z,980.92
2023-03-07T07:13:46.331Z,980.91
2023-03-07T07:14:46.341Z,980.94
2023-03-07T07:15:46.323Z,980.91
2023-03-07T07:16:46.386Z,980.89
2023-03-07T07:17:46.318Z,980.90
2023-03-07T07:18:46.280Z,980.85
2023-03-07T07:19:46.282Z,980.87
2023-03-07T07:20:46.249Z,980.92
2023-03-07T07:21:46.237Z,980.91
2023-03-07T07:22:46.245Z,980.92
2023-03-07T07:23:46.249Z,980.95
2023-03-07T07:24:46.222Z,980.97
2023-03-07T07:25:46.211Z,980.91
2023-03-07T07:26:46.180Z,980.90
2023-03-07T07:27:46.187Z,980.92
2023-03-07T07:28:46.198Z,980.99
2023-03-07T07:29:46.228Z,980.91
2023-03-07T07:30:46.139Z,980.90
2023-03-07T07:31:46.182Z,980.94
2023-03-07T07:32:46.238Z,980.94
2023-03-07T07:33:46.130Z,980.95
2023-03-07T07:34:46.177Z,980.86
2023-03-07T07:35:46.380Z,980.85
2023-03-07T07:36:46.072Z,980.92
2023-03-07T07:37:46.072Z,980.88
2023-03-07T07:38:46.054Z,980.87
2023-03-07T07:39:46.041Z,980.94
2023-03-07T07:40:46.364Z,980.93
2023-03-07T07:41:46.040Z,980.94
2023-03-07T07:42:46.024Z,981.02
2023-03-07T07:43:46.018Z,980.98
2023-03-07T07:44:46.001Z,980.93
2023-03-07T07:45:46.074Z,980.93
2023-03-07T07:46:46.019Z,980.96
2023-03-07T07:47:45.956Z,980.98
2023-03-07T07:48:45.950Z,981.02
2023-03-07T07:49:45.996Z,980.93
2023-03-07T07:50:45.922Z,980.90
2023-03-07T07:51:45.926Z,980.96
2023-03-07T07:52:45.950Z,980.99
2023-03-07T07:53:45.894Z,980.90
2023-03-07T07:54:45.872Z,980.91
2023-03-07T07:55:45.876Z,980.94
2023-03-07T07:56:45.874Z,980.95
2023-03-07T07:57:45.872Z,980.96
2023-03-07T07:58:45.827Z,980.95
2023-03-07T07:59:45.872Z,980.88
2023-03-07T08:00:45.847Z,980.97
2023-03-07T08:01:45.792Z,980.95
2023-03-07T08:02:45.809Z,980.95
2023-03-07T08:03:45.882Z,980.92
2023-03-07T08:04:45.760Z,980.96
2023-03-07T08:05:45.778Z,980.94
2023-03-07T08:06:45.742Z,981.01
2023-03-07T08:07:45.758Z,981.02
2023-03-07T08:08:45.733Z,980.91
2023-03-07T08:09:45.740Z,980.89
2023-03-07T08:10:45.702Z,980.83
2023-03-07T08:11:45.681Z,980.90
2023-03-07T08:12:45.670Z,980.85
2023-03-07T08:13:45.677Z,980.82
2023-03-07T08:14:45.669Z,980.83
2023-03-07T08:15:45.700Z,980.86
2023-03-07T08:16:45.637Z,980.81
2023-03-07T08:17:45.614Z,980.76
2023-03-07T08:18:45.612Z,980.78
2023-03-07T08:19:45.633Z,980.78
2023-03-07T08:20:45.621Z,980.80
2023-03-07T08:21:45.586Z,980.83
2023-03-07T08:22:45.581Z,980.80
2023-03-07T08:23:45.552Z,980.83
2023-03-07T08:24:45.544Z,980.87
2023-03-07T08:25:45.536Z,980.81
2023-03-07T08:26:45.563Z,980.88
2023-03-07T08:27:45.515Z,980.83
2023-03-07T08:28:45.499Z,980.89
2023-03-07T08:29:45.480Z,980.85
2023-03-07T08:30:45.479Z,980.80
2023-03-07T08:31:45.495Z,980.83
2023-03-07T08:32:45.543Z,980.89
2023-03-07T08:33:45.434Z,980.87
2023-03-07T08:34:45.447Z,980.88
2023-03-07T08:35:45.439Z,980.85
2023-03-07T08:36:45.433Z,980.85
2023-03-07T08:37:45.395Z,980.84
2023-03-07T08:38:45.407Z,980.74
2023-03-07T08:39:45.398Z,980.81
2023-03-07T08:40:45.367Z,980.70
2023-03-07T08:41:45.396Z,980.71
2023-03-07T08:42:45.386Z,980.73
2023-03-07T08:43:45.360Z,980.80
2023-03-07T08:44:45.332Z,980.70
2023-03-07T08:45:45.308Z,980.72
2023-03-07T08:46:45.315Z,980.68
2023-03-07T08:47:45.296Z,980.71
2023-03-07T08:48:45.721Z,980.67
2023-03-07T08:49:45.296Z,980.64
2023-03-07T08:50:45.246Z,980.58
2023-03-07T08:51:45.247Z,980.66
2023-03-07T08:52:45.237Z,980.65
2023-03-07T08:53:45.204Z,980.65
2023-03-07T08:54:45.201Z,980.65
2023-03-07T08:55:45.231Z,980.75
2023-03-07T08:56:45.187Z,980.65
2023-03-07T08:57:45.203Z,980.59
2023-03-07T08:58:45.173Z,980.62
2023-03-07T08:59:45.154Z,980.65
2023-03-07T09:00:45.137Z,980.65
2023-03-07T09:01:45.186Z,980.60
2023-03-07T09:02:45.114Z,980.66
2023-03-07T09:03:45.100Z,980.63
2023-03-07T09:04:45.120Z,980.62
2023-03-07T09:05:45.072Z,980.60
2023-03-07T09:06:45.090Z,980.62
2023-03-07T09:07:45.060Z,980.57
2023-03-07T09:08:45.036Z,980.53
2023-03-07T09:09:45.050Z,980.63
2023-03-07T09:10:45.030Z,980.63
2023-03-07T09:11:45.006Z,980.64
2023-03-07T09:12:45.017Z,980.62
2023-03-07T09:13:51.810Z,980.66
2023-03-07T09:14:45.961Z,980.58
2023-03-07T09:15:44.954Z,980.64
2023-03-07T09:16:44.944Z,980.62
2023-03-07T09:17:44.948Z,980.56
2023-03-07T09:18:44.952Z,980.55
2023-03-07T09:19:44.929Z,980.60
2023-03-07T09:20:44.906Z,980.62
2023-03-07T09:21:44.904Z,980.57
2023-03-07T09:22:44.875Z,980.59
2023-03-07T09:23:45.236Z,980.44
2023-03-07T09:24:44.914Z,980.55
2023-03-07T09:25:44.859Z,980.50
2023-03-07T09:26:44.837Z,980.52
2023-03-07T09:27:44.826Z,980.59
2023-03-07T09:28:44.837Z,980.48
2023-03-07T09:29:44.804Z,980.47
2023-03-07T09:30:44.812Z,980.38
2023-03-07T09:31:44.847Z,980.47
2023-03-07T09:32:44.792Z,980.48
2023-03-07T09:33:46.634Z,980.43
2023-03-07T09:34:44.746Z,980.49
2023-03-07T09:35:44.870Z,980.44
2023-03-07T09:36:44.799Z,980.42
2023-03-07T09:37:44.730Z,980.41
2023-03-07T09:38:44.707Z,980.40
2023-03-07T09:39:44.693Z,980.31
2023-03-07T09:40:44.678Z,980.29
2023-03-07T09:41:44.704Z,980.37
2023-03-07T09:42:44.883Z,980.27
2023-03-07T09:43:44.709Z,980.24
2023-03-07T09:44:44.630Z,980.30
2023-03-07T09:45:44.747Z,980.18
2023-03-07T09:46:45.833Z,980.23
2023-03-07T09:47:44.615Z,980.31
2023-03-07T09:48:44.610Z,980.19
2023-03-07T09:49:44.601Z,980.21
2023-03-07T09:50:44.574Z,980.19
2023-03-07T09:51:44.575Z,980.10
2023-03-07T09:52:44.843Z,980.09
2023-03-07T09:53:44.561Z,980.13
2023-03-07T09:54:44.535Z,980.15
2023-03-07T09:55:44.511Z,980.12
2023-03-07T09:56:44.511Z,980.17
2023-03-07T09:57:44.487Z,980.14
2023-03-07T09:58:44.503Z,980.06
2023-03-07T09:59:44.486Z,980.07
2023-03-07T10:00:44.454Z,980.06
2023-03-07T10:01:44.453Z,980.08
2023-03-07T10:02:44.713Z,980.04
2023-03-07T10:03:44.482Z,980.03
2023-03-07T10:04:44.566Z,980.04
2023-03-07T10:05:44.441Z,980.08
2023-03-07T10:06:44.391Z,980.09
2023-03-07T10:07:44.394Z,980.10
2023-03-07T10:08:44.375Z,980.02
2023-03-07T10:09:44.397Z,980.12
2023-03-07T10:10:44.389Z,980.07
2023-03-07T10:11:44.377Z,979.99
2023-03-07T10:12:44.371Z,980.02
2023-03-07T10:13:44.307Z,980.10
2023-03-07T10:14:44.304Z,980.10
2023-03-07T10:15:44.408Z,980.16
2023-03-07T10:16:44.352Z,980.12
2023-03-07T10:17:44.259Z,980.14
2023-03-07T10:18:44.256Z,980.10
2023-03-07T10:19:44.237Z,980.16
2023-03-07T10:20:44.434Z,980.20
2023-03-07T10:21:44.248Z,980.13
2023-03-07T10:22:44.224Z,980.11
2023-03-07T10:23:44.208Z,980.11
2023-03-07T10:24:44.178Z,980.10
2023-03-07T10:25:44.192Z,980.16
2023-03-07T10:26:44.269Z,980.19
2023-03-07T10:27:44.177Z,980.23
2023-03-07T10:28:44.193Z,980.17
2023-03-07T10:29:44.118Z,980.16
2023-03-07T10:30:44.169Z,980.22
2023-03-07T10:31:44.195Z,980.17
2023-03-07T10:32:44.150Z,980.23
2023-03-07T10:33:44.146Z,980.16
2023-03-07T10:34:44.085Z,980.25
2023-03-07T10:35:44.082Z,980.15
2023-03-07T10:36:44.048Z,980.17
2023-03-07T10:37:44.054Z,980.16
2023-03-07T10:38:44.046Z,980.11
2023-03-07T10:39:44.015Z,980.12
2023-03-07T10:40:44.010Z,980.18
2023-03-07T10:41:43.985Z,980.14
2023-03-07T10:42:43.978Z,980.19
2023-03-07T10:43:43.959Z,980.18
2023-03-07T10:44:43.986Z,980.08
2023-03-07T10:45:43.970Z,980.06
2023-03-07T10:46:54.975Z,980.07
2023-03-07T10:47:44.923Z,980.10
2023-03-07T10:48:43.935Z,980.09
2023-03-07T10:49:43.889Z,980.11
2023-03-07T10:50:43.910Z,979.98
2023-03-07T10:51:43.866Z,980.00
2023-03-07T10:52:43.867Z,980.01
2023-03-07T10:53:43.848Z,980.05
2023-03-07T10:54:43.863Z,979.97
2023-03-07T10:55:43.910Z,980.01
2023-03-07T10:56:43.838Z,980.11
2023-03-07T10:57:43.810Z,980.08
2023-03-07T10:58:43.800Z,980.06
2023-03-07T10:59:43.803Z,980.09
2023-03-07T11:00:43.765Z,980.10
2023-03-07T11:01:43.913Z,980.09
2023-03-07T11:02:43.756Z,980.17
2023-03-07T11:03:52.678Z,980.05
2023-03-07T11:04:44.776Z,980.09
2023-03-07T11:05:43.736Z,980.09
2023-03-07T11:06:43.705Z,980.00
2023-03-07T11:07:43.754Z,980.07
2023-03-07T11:08:43.676Z,979.97
2023-03-07T11:09:43.672Z,980.03
2023-03-07T11:10:43.655Z,980.02
2023-03-07T11:11:43.668Z,979.93
2023-03-07T11:12:43.637Z,979.87
2023-03-07T11:13:43.676Z,979.93
2023-03-07T11:14:43.631Z,979.92
2023-03-07T11:15:43.622Z,979.93
2023-03-07T11:16:43.688Z,979.86
2023-03-07T11:17:43.586Z,979.96
2023-03-07T11:18:43.566Z,979.91
2023-03-07T11:19:43.637Z,979.89
2023-03-07T11:20:43.539Z,979.80
2023-03-07T11:21:43.532Z,979.79
2023-03-07T11:22:43.556Z,979.78
2023-03-07T11:23:43.539Z,979.78
2023-03-07T11:24:43.515Z,979.78
2023-03-07T11:25:43.558Z,979.69
2023-03-07T11:26:43.479Z,979.64
2023-03-07T11:27:43.472Z,979.64
2023-03-07T11:28:43.454Z,979.63
2023-03-07T11:29:43.447Z,979.62
2023-03-07T11:30:43.495Z,979.68
2023-03-07T11:31:43.421Z,979.68
2023-03-07T11:32:43.450Z,979.59
2023-03-07T11:33:56.694Z,979.59
2023-03-07T11:34:44.388Z,979.60
2023-03-07T11:35:43.390Z,979.63
2023-03-07T11:36:43.419Z,979.56
2023-03-07T11:37:43.363Z,979.60
2023-03-07T11:38:43.347Z,979.53
2023-03-07T11:39:43.347Z,979.55
2023-03-07T11:40:43.325Z,979.55
2023-03-07T11:41:43.336Z,979.61
2023-03-07T11:42:43.332Z,979.49
2023-03-07T11:43:43.290Z,979.50
2023-03-07T11:44:43.294Z,979.47
2023-03-07T11:45:43.285Z,979.44
2023-03-07T11:46:43.302Z,979.46
2023-03-07T11:47:43.277Z,979.48
2023-03-07T11:48:43.251Z,979.48
2023-03-07T11:49:43.227Z,979.48
2023-03-07T11:50:43.213Z,979.46
2023-03-07T11:51:43.216Z,979.39
2023-03-07T11:52:43.183Z,979.33
2023-03-07T11:53:45.697Z,979.38
2023-03-07T11:54:43.162Z,979.50
2023-03-07T11:55:43.144Z,979.39
2023-03-07T11:56:43.157Z,979.41
2023-03-07T11:57:43.136Z,979.41
2023-03-07T11:58:43.117Z,979.44
2023-03-07T11:59:43.146Z,979.39
2023-03-07T12:00:43.098Z,979.42
2023-03-07T12:01:43.119Z,979.41
2023-03-07T12:02:43.127Z,979.40
2023-03-07T12:03:43.071Z,979.35
2023-03-07T12:04:43.074Z,979.42
2023-03-07T12:05:43.133Z,979.39
2023-03-07T12:06:43.033Z,979.44
2023-03-07T12:07:43.009Z,979.44
2023-03-07T12:08:42.991Z,979.35
2023-03-07T12:09:42.989Z,979.41
2023-03-07T12:10:43.037Z,979.34
2023-03-07T12:11:42.969Z,979.33
2023-03-07T12:12:42.951Z,979.28
2023-03-07T12:13:42.958Z,979.30
2023-03-07T12:14:42.920Z,979.29
2023-03-07T12:15:42.939Z,979.26
2023-03-07T12:16:42.988Z,979.31
2023-03-07T12:17:42.907Z,979.27
2023-03-07T12:18:42.884Z,979.20
2023-03-07T12:19:42.872Z,979.20
2023-03-07T12:20:42.863Z,979.21
2023-03-07T12:21:42.863Z,979.13
2023-03-07T12:22:42.897Z,979.17
2023-03-07T12:23:42.840Z,979.26
2023-03-07T12:24:42.824Z,979.13
2023-03-07T12:25:42.840Z,979.19
2023-03-07T12:26:42.838Z,979.18
2023-03-07T12:27:42.789Z,979.18
2023-03-07T12:28:42.796Z,979.13